createdAt,value
2018-07-12T00:00:34.521Z,19.20
2018-07-12T00:03:01.774Z,19.30
2018-07-12T00:05:29.001Z,19.40
2018-07-12T00:07:56.257Z,19.30
2018-07-12T00:10:23.495Z,19.40
2018-07-12T00:12:50.722Z,19.30
2018-07-12T00:15:17.940Z,19.10
2018-07-12T00:17:45.173Z,18.80
2018-07-12T00:20:12.567Z,18.70
2018-07-12T00:22:39.885Z,18.60
2018-07-12T00:25:07.105Z,18.70
2018-07-12T00:27:34.341Z,18.70
2018-07-12T00:30:01.581Z,18.50
2018-07-12T00:32:28.855Z,18.60
2018-07-12T00:34:56.121Z,18.50
2018-07-12T00:37:23.654Z,18.60
2018-07-12T00:39:51.312Z,19.00
2018-07-12T00:42:18.854Z,19.20
2018-07-12T00:44:46.069Z,19.10
2018-07-12T00:47:13.298Z,18.80
2018-07-12T00:49:40.521Z,19.00
2018-07-12T00:52:07.750Z,19.10
2018-07-12T00:54:34.977Z,18.80
2018-07-12T00:57:02.203Z,18.60
2018-07-12T00:59:29.448Z,18.50
2018-07-12T01:01:56.690Z,18.60
2018-07-12T01:04:23.905Z,18.50
2018-07-12T01:06:51.128Z,18.80
2018-07-12T01:09:18.349Z,18.90
2018-07-12T01:11:45.592Z,18.60
2018-07-12T01:14:12.814Z,18.60
2018-07-12T01:16:40.064Z,18.60
2018-07-12T01:19:07.313Z,19.10
2018-07-12T01:21:34.626Z,19.20
2018-07-12T01:24:01.874Z,18.90
2018-07-12T01:26:29.116Z,19.00
2018-07-12T01:28:56.341Z,19.10
2018-07-12T01:31:23.599Z,19.10
2018-07-12T01:33:50.830Z,19.00
2018-07-12T01:36:18.073Z,19.00
2018-07-12T01:38:45.289Z,18.70
2018-07-12T01:41:12.524Z,19.00
2018-07-12T01:43:39.769Z,19.20
2018-07-12T01:46:06.997Z,19.30
2018-07-12T01:48:34.306Z,19.30
2018-07-12T01:51:02.661Z,19.10
2018-07-12T01:53:30.011Z,19.20
2018-07-12T01:55:57.314Z,19.20
2018-07-12T01:58:24.561Z,19.30
2018-07-12T02:00:51.821Z,19.30
2018-07-12T02:03:19.077Z,19.20
2018-07-12T02:05:46.324Z,19.10
2018-07-12T02:08:13.593Z,19.00
2018-07-12T02:10:40.842Z,19.20
2018-07-12T02:13:08.117Z,19.00
2018-07-12T02:15:35.349Z,19.10
2018-07-12T02:18:02.605Z,19.10
2018-07-12T02:20:29.864Z,19.10
2018-07-12T02:22:57.118Z,19.20
2018-07-12T02:25:24.345Z,19.20
2018-07-12T02:27:51.608Z,19.20
2018-07-12T02:30:18.859Z,19.00
2018-07-12T02:32:46.147Z,19.00
2018-07-12T02:35:13.577Z,19.00
2018-07-12T02:37:40.772Z,18.80
2018-07-12T02:40:08.003Z,18.80
2018-07-12T02:42:35.443Z,18.80
2018-07-12T02:45:03.084Z,18.70
2018-07-12T02:47:30.382Z,18.50
2018-07-12T02:49:57.818Z,18.30
2018-07-12T02:52:25.203Z,18.40
2018-07-12T02:54:52.735Z,18.10
2018-07-12T02:57:20.365Z,17.90
2018-07-12T02:59:47.877Z,17.80
2018-07-12T03:02:15.242Z,17.60
2018-07-12T03:04:42.638Z,17.50
2018-07-12T03:07:09.979Z,17.50
2018-07-12T03:09:37.311Z,17.50
2018-07-12T03:12:04.646Z,17.40
2018-07-12T03:14:31.913Z,17.40
2018-07-12T03:16:59.205Z,17.40
2018-07-12T03:19:26.586Z,17.40
2018-07-12T03:21:53.917Z,17.30
2018-07-12T03:24:21.236Z,17.30
2018-07-12T03:26:48.543Z,17.20
2018-07-12T03:29:15.795Z,17.20
2018-07-12T03:31:43.051Z,17.10
2018-07-12T03:34:10.312Z,17.10
2018-07-12T03:36:37.564Z,17.10
2018-07-12T03:39:05.053Z,17.10
2018-07-12T03:41:32.325Z,17.20
2018-07-12T03:43:59.559Z,17.20
2018-07-12T03:46:26.817Z,17.20
2018-07-12T03:48:54.081Z,17.20
2018-07-12T03:51:21.312Z,17.10
2018-07-12T03:53:48.592Z,17.10
2018-07-12T03:56:15.849Z,17.20
2018-07-12T03:58:43.101Z,17.30
2018-07-12T04:01:10.368Z,17.40
2018-07-12T04:03:37.733Z,17.40
2018-07-12T04:06:04.921Z,17.40
2018-07-12T04:08:32.205Z,17.50
2018-07-12T04:10:59.554Z,17.50
2018-07-12T04:13:26.740Z,17.60
2018-07-12T04:15:54.006Z,17.60
2018-07-12T04:18:21.322Z,17.60
2018-07-12T04:20:48.633Z,17.70
2018-07-12T04:23:15.989Z,17.70
2018-07-12T04:25:43.302Z,17.80
2018-07-12T04:28:10.604Z,17.80
2018-07-12T04:30:37.875Z,17.80
2018-07-12T04:33:05.179Z,17.90
2018-07-12T04:35:32.441Z,17.90
2018-07-12T04:37:59.689Z,17.90
2018-07-12T04:40:26.942Z,18.00
2018-07-12T04:42:54.224Z,18.10
2018-07-12T04:45:21.477Z,18.10
2018-07-12T04:47:48.705Z,18.10
2018-07-12T04:50:16.001Z,18.20
2018-07-12T04:52:43.279Z,18.20
2018-07-12T04:55:10.545Z,18.30
2018-07-12T04:57:37.796Z,18.30
2018-07-12T05:00:05.086Z,18.20
2018-07-12T05:02:32.457Z,18.70
2018-07-12T05:04:59.709Z,18.90
2018-07-12T05:07:26.982Z,19.10
2018-07-12T05:09:54.254Z,19.20
2018-07-12T05:12:21.567Z,19.10
2018-07-12T05:14:48.851Z,19.10
2018-07-12T05:17:16.139Z,19.30
2018-07-12T05:19:43.413Z,19.30
2018-07-12T05:22:10.661Z,19.00
2018-07-12T05:24:37.925Z,19.30
2018-07-12T05:27:05.272Z,19.20
2018-07-12T05:29:32.633Z,19.30
2018-07-12T05:31:59.876Z,19.30
2018-07-12T05:34:27.132Z,19.50
2018-07-12T05:36:56.664Z,19.50
2018-07-12T05:39:25.037Z,19.60
2018-07-12T05:41:53.393Z,19.80
2018-07-12T05:44:21.781Z,19.60
2018-07-12T05:46:50.535Z,19.80
2018-07-12T05:49:19.125Z,19.90
2018-07-12T05:51:47.603Z,19.90
2018-07-12T05:54:17.517Z,19.90
2018-07-12T05:56:45.937Z,19.60
2018-07-12T05:59:14.333Z,19.80
2018-07-12T06:01:53.854Z,19.90
2018-07-12T06:04:22.214Z,20.10
2018-07-12T06:06:50.605Z,20.10
2018-07-12T06:09:18.955Z,20.00
2018-07-12T06:11:47.345Z,20.10
2018-07-12T06:14:15.769Z,20.50
2018-07-12T06:16:44.229Z,20.50
2018-07-12T06:19:12.797Z,20.00
2018-07-12T06:21:41.203Z,19.50
2018-07-12T06:24:09.604Z,19.60
2018-07-12T06:26:38.171Z,19.40
2018-07-12T06:29:06.573Z,19.30
2018-07-12T06:31:35.090Z,19.10
2018-07-12T06:34:03.549Z,19.30
2018-07-12T06:36:32.072Z,19.60
2018-07-12T06:39:00.464Z,19.80
2018-07-12T06:41:28.963Z,19.80
2018-07-12T06:43:57.455Z,19.50
2018-07-12T06:46:26.098Z,19.80
2018-07-12T06:48:54.434Z,19.70
2018-07-12T06:51:22.838Z,20.20
2018-07-12T06:53:51.225Z,20.60
2018-07-12T06:56:19.578Z,20.80
2018-07-12T06:58:48.001Z,20.80
2018-07-12T07:01:16.401Z,21.20
2018-07-12T07:03:44.777Z,20.90
2018-07-12T07:06:13.373Z,21.00
2018-07-12T07:08:41.959Z,21.10
2018-07-12T07:11:10.580Z,21.70
2018-07-12T07:13:39.090Z,21.80
2018-07-12T07:16:07.914Z,21.90
2018-07-12T07:18:36.292Z,22.00
2018-07-12T07:21:04.931Z,21.50
2018-07-12T07:23:33.534Z,21.30
2018-07-12T07:26:01.886Z,21.60
2018-07-12T07:28:30.366Z,21.90
2018-07-12T07:30:58.921Z,22.20
2018-07-12T07:33:27.495Z,21.90
2018-07-12T07:35:56.076Z,22.00
2018-07-12T07:38:24.711Z,21.60
2018-07-12T07:40:53.257Z,21.20
2018-07-12T07:43:21.937Z,21.20
2018-07-12T07:45:50.865Z,21.50
2018-07-12T07:48:19.370Z,21.80
2018-07-12T07:50:47.774Z,21.90
2018-07-12T07:53:16.086Z,22.10
2018-07-12T07:55:44.467Z,22.40
2018-07-12T07:58:12.878Z,22.30
2018-07-12T08:00:41.474Z,22.40
2018-07-12T08:03:09.797Z,22.20
2018-07-12T08:05:38.173Z,22.30
2018-07-12T08:08:06.784Z,22.40
2018-07-12T08:10:35.181Z,22.50
2018-07-12T08:13:06.330Z,22.80
2018-07-12T08:15:34.852Z,23.10
2018-07-12T08:18:04.992Z,22.90
2018-07-12T08:20:33.497Z,22.70
2018-07-12T08:23:02.694Z,22.60
2018-07-12T08:25:31.014Z,22.90
2018-07-12T08:28:10.723Z,22.80
2018-07-12T08:30:39.101Z,22.70
2018-07-12T08:33:07.565Z,23.30
2018-07-12T08:35:36.066Z,22.90
2018-07-12T08:38:04.456Z,23.20
2018-07-12T08:40:33.455Z,23.20
2018-07-12T08:43:02.013Z,23.00
2018-07-12T08:45:30.618Z,23.20
2018-07-12T08:47:59.001Z,23.20
2018-07-12T08:50:27.365Z,23.90
2018-07-12T08:52:55.823Z,23.50
2018-07-12T08:55:24.375Z,23.70
2018-07-12T08:57:52.714Z,23.40
2018-07-12T09:00:21.273Z,23.40
2018-07-12T09:02:49.841Z,23.60
2018-07-12T09:05:18.125Z,23.60
2018-07-12T09:07:46.522Z,23.60
2018-07-12T09:10:15.274Z,23.80
2018-07-12T09:12:43.749Z,23.90
2018-07-12T09:15:12.369Z,24.40
2018-07-12T09:17:40.849Z,24.90
2018-07-12T09:20:09.205Z,25.00
2018-07-12T09:22:37.705Z,25.10
2018-07-12T09:25:06.141Z,25.60
2018-07-12T09:27:34.532Z,24.60
2018-07-12T09:30:04.487Z,23.90
2018-07-12T09:32:32.892Z,23.90
2018-07-12T09:35:01.310Z,23.90
2018-07-12T09:37:29.743Z,24.50
2018-07-12T09:39:58.145Z,25.00
2018-07-12T09:42:26.563Z,25.30
2018-07-12T09:44:55.045Z,25.20
2018-07-12T09:47:23.439Z,25.50
2018-07-12T09:49:51.701Z,25.30
2018-07-12T09:52:25.754Z,25.30
2018-07-12T09:54:54.113Z,25.50
2018-07-12T09:57:33.938Z,25.50
2018-07-12T10:00:02.623Z,25.60
2018-07-12T10:02:36.217Z,25.90
2018-07-12T10:05:04.625Z,25.20
2018-07-12T10:07:38.402Z,25.40
2018-07-12T10:10:06.794Z,25.40
2018-07-12T10:12:40.506Z,25.50
2018-07-12T10:15:10.371Z,25.80
2018-07-12T10:17:44.346Z,26.30
2018-07-12T10:20:12.773Z,26.30
2018-07-12T10:22:41.129Z,25.90
2018-07-12T10:25:09.453Z,25.70
2018-07-12T10:27:38.353Z,25.10
2018-07-12T10:30:06.767Z,25.20
2018-07-12T10:32:35.259Z,25.90
2018-07-12T10:35:03.722Z,25.90
2018-07-12T10:37:32.118Z,25.30
2018-07-12T10:40:00.502Z,25.30
2018-07-12T10:42:29.137Z,25.80
2018-07-12T10:44:57.540Z,25.60
2018-07-12T10:47:26.073Z,26.30
2018-07-12T10:49:54.462Z,25.90
2018-07-12T10:52:22.908Z,26.00
2018-07-12T10:54:51.275Z,25.30
2018-07-12T10:57:19.655Z,25.20
2018-07-12T10:59:48.033Z,25.80
2018-07-12T11:02:16.410Z,26.20
2018-07-12T11:04:44.764Z,26.10
2018-07-12T11:07:13.709Z,26.40
2018-07-12T11:09:42.178Z,27.10
2018-07-12T11:12:11.704Z,27.00
2018-07-12T11:14:40.135Z,26.70
2018-07-12T11:17:10.336Z,26.50
2018-07-12T11:19:38.721Z,26.60
2018-07-12T11:22:07.122Z,26.70
2018-07-12T11:24:35.531Z,26.80
2018-07-12T11:27:03.857Z,26.70
2018-07-12T11:29:43.365Z,25.70
2018-07-12T11:32:11.675Z,25.30
2018-07-12T11:34:40.034Z,26.00
2018-07-12T11:37:09.300Z,26.30
2018-07-12T11:39:37.598Z,26.90
2018-07-12T11:42:05.926Z,26.80
2018-07-12T11:44:34.305Z,26.60
2018-07-12T11:47:02.601Z,26.00
2018-07-12T11:49:31.686Z,26.60
2018-07-12T11:52:00.060Z,26.40
2018-07-12T11:54:28.636Z,26.50
2018-07-12T11:56:57.108Z,26.90
2018-07-12T11:59:25.401Z,26.90
2018-07-12T12:01:54.156Z,26.60
2018-07-12T12:04:22.812Z,26.60
2018-07-12T12:06:53.475Z,26.80
2018-07-12T12:09:21.773Z,27.30
2018-07-12T12:11:50.106Z,27.60
2018-07-12T12:14:18.442Z,27.30
2018-07-12T12:16:47.842Z,27.00
2018-07-12T12:19:16.189Z,26.80
2018-07-12T12:21:44.512Z,27.20
2018-07-12T12:24:12.897Z,27.70
2018-07-12T12:26:41.322Z,27.80
2018-07-12T12:29:09.694Z,28.50
2018-07-12T12:31:38.045Z,28.30
2018-07-12T12:34:06.429Z,27.90
2018-07-12T12:36:34.780Z,27.80
2018-07-12T12:39:03.969Z,28.30
2018-07-12T12:41:32.348Z,28.50
2018-07-12T12:44:00.839Z,28.60
2018-07-12T12:46:29.188Z,28.60
2018-07-12T12:48:57.526Z,28.20
2018-07-12T12:51:27.300Z,28.00
2018-07-12T12:53:55.734Z,28.10
2018-07-12T12:56:27.209Z,28.40
2018-07-12T12:58:55.649Z,28.30
2018-07-12T13:01:24.663Z,28.00
2018-07-12T13:03:53.081Z,28.60
2018-07-12T13:06:21.609Z,28.10
2018-07-12T13:08:50.845Z,28.60
2018-07-12T13:11:19.437Z,28.50
2018-07-12T13:13:48.050Z,28.60
2018-07-12T13:16:16.626Z,29.10
2018-07-12T13:18:45.039Z,29.50
2018-07-12T13:21:13.413Z,29.60
2018-07-12T13:23:41.776Z,29.60
2018-07-12T13:26:10.394Z,29.40
2018-07-12T13:28:38.738Z,29.20
2018-07-12T13:31:07.236Z,29.30
2018-07-12T13:33:35.610Z,30.20
2018-07-12T13:36:04.011Z,29.90
2018-07-12T13:38:32.321Z,30.10
2018-07-12T13:41:00.724Z,29.80
2018-07-12T13:43:29.039Z,29.40
2018-07-12T13:45:57.403Z,29.10
2018-07-12T13:48:25.763Z,29.00
2018-07-12T13:50:54.081Z,28.80
2018-07-12T13:53:22.405Z,28.50
2018-07-12T13:55:50.723Z,28.70
2018-07-12T13:58:19.245Z,28.60
2018-07-12T14:00:47.566Z,28.70
2018-07-12T14:03:15.909Z,28.40
2018-07-12T14:05:44.194Z,28.90
2018-07-12T14:08:12.650Z,28.80
2018-07-12T14:10:40.981Z,28.90
2018-07-12T14:13:09.322Z,29.20
2018-07-12T14:15:37.623Z,29.70
2018-07-12T14:18:05.941Z,30.10
2018-07-12T14:20:34.222Z,31.30
2018-07-12T14:23:02.602Z,30.90
2018-07-12T14:25:30.973Z,30.70
2018-07-12T14:27:59.379Z,30.70
2018-07-12T14:30:27.819Z,30.80
2018-07-12T14:32:56.189Z,31.00
2018-07-12T14:35:24.593Z,31.10
2018-07-12T14:37:52.977Z,31.30
2018-07-12T14:40:21.378Z,31.50
2018-07-12T14:42:49.694Z,31.90
2018-07-12T14:45:18.225Z,32.10
2018-07-12T14:47:46.558Z,32.50
2018-07-12T14:50:14.877Z,32.20
2018-07-12T14:52:43.426Z,32.30
2018-07-12T14:55:11.814Z,32.20
2018-07-12T14:57:42.286Z,32.10
2018-07-12T15:00:10.687Z,31.90
2018-07-12T15:02:39.041Z,31.70
2018-07-12T15:05:07.450Z,31.70
2018-07-12T15:07:35.809Z,31.10
2018-07-12T15:10:04.506Z,31.20
2018-07-12T15:12:32.908Z,31.00
2018-07-12T15:15:01.285Z,30.60
2018-07-12T15:17:29.751Z,30.70
2018-07-12T15:19:58.135Z,31.20
2018-07-12T15:22:26.623Z,31.50
2018-07-12T15:24:54.938Z,32.10
2018-07-12T15:27:23.456Z,31.60
2018-07-12T15:29:51.942Z,32.30
2018-07-12T15:32:20.420Z,32.10
2018-07-12T15:34:48.814Z,32.00
2018-07-12T15:37:17.192Z,32.70
2018-07-12T15:39:45.565Z,33.00
2018-07-12T15:42:14.265Z,33.10
2018-07-12T15:44:42.574Z,33.70
2018-07-12T15:47:11.014Z,33.90
2018-07-12T15:49:39.349Z,35.00
2018-07-12T15:52:07.660Z,36.10
2018-07-12T15:54:36.011Z,35.80
2018-07-12T15:57:04.341Z,35.50
2018-07-12T15:59:32.838Z,35.60
2018-07-12T16:02:01.250Z,36.50
2018-07-12T16:04:29.686Z,36.00
2018-07-12T16:06:58.036Z,35.00
2018-07-12T16:09:26.534Z,35.50
2018-07-12T16:11:54.904Z,35.00
2018-07-12T16:14:23.283Z,34.50
2018-07-12T16:16:51.701Z,35.20
2018-07-12T16:19:20.100Z,34.90
2018-07-12T16:21:48.485Z,35.60
2018-07-12T16:24:16.881Z,36.30
2018-07-12T16:26:45.243Z,36.50
2018-07-12T16:29:13.573Z,35.00
2018-07-12T16:31:41.867Z,34.40
2018-07-12T16:34:10.204Z,34.60
2018-07-12T16:36:38.491Z,35.70
2018-07-12T16:39:07.270Z,35.90
2018-07-12T16:41:35.633Z,35.40
2018-07-12T16:44:04.093Z,37.40
2018-07-12T16:46:32.473Z,37.30
2018-07-12T16:49:00.878Z,35.80
2018-07-12T16:51:29.278Z,36.40
2018-07-12T16:53:57.719Z,36.00
2018-07-12T16:56:26.102Z,37.10
2018-07-12T16:58:54.419Z,37.70
2018-07-12T17:01:23.055Z,37.40
2018-07-12T17:03:51.639Z,36.20
2018-07-12T17:06:20.234Z,34.30
2018-07-12T17:08:49.396Z,33.60
2018-07-12T17:11:17.922Z,33.00
2018-07-12T17:13:46.565Z,32.10
2018-07-12T17:16:15.200Z,31.90
2018-07-12T17:18:43.718Z,31.50
2018-07-12T17:21:12.325Z,31.40
2018-07-12T17:23:40.890Z,31.00
2018-07-12T17:26:09.511Z,31.00
2018-07-12T17:28:38.126Z,31.10
2018-07-12T17:31:06.573Z,31.30
2018-07-12T17:33:34.935Z,31.40
2018-07-12T17:36:03.295Z,31.30
2018-07-12T17:38:31.861Z,30.80
2018-07-12T17:41:00.229Z,30.40
2018-07-12T17:43:28.615Z,30.30
2018-07-12T17:45:57.624Z,30.40
2018-07-12T17:48:25.989Z,30.00
2018-07-12T17:50:54.349Z,29.70
2018-07-12T17:53:22.728Z,29.50
2018-07-12T17:55:51.080Z,29.00
2018-07-12T17:58:19.415Z,28.70
2018-07-12T18:00:47.812Z,28.80
2018-07-12T18:03:16.283Z,29.00
2018-07-12T18:05:44.699Z,29.10
2018-07-12T18:08:12.995Z,28.80
2018-07-12T18:10:41.465Z,29.30
2018-07-12T18:13:09.871Z,29.60
2018-07-12T18:15:38.235Z,29.40
2018-07-12T18:18:06.530Z,29.30
2018-07-12T18:20:34.859Z,29.40
2018-07-12T18:23:03.276Z,29.40
2018-07-12T18:25:31.604Z,29.80
2018-07-12T18:27:59.950Z,29.60
2018-07-12T18:30:28.338Z,29.60
2018-07-12T18:32:56.769Z,29.10
2018-07-12T18:35:25.202Z,28.70
2018-07-12T18:37:53.432Z,28.60
2018-07-12T18:40:21.803Z,28.50
2018-07-12T18:42:50.152Z,28.20
2018-07-12T18:45:18.536Z,28.00
2018-07-12T18:47:46.916Z,28.20
2018-07-12T18:50:15.217Z,28.20
2018-07-12T18:52:43.518Z,28.30
2018-07-12T18:55:11.912Z,28.20
2018-07-12T18:57:40.298Z,28.00
2018-07-12T19:00:09.492Z,27.50
2018-07-12T19:02:38.032Z,27.00
2018-07-12T19:05:06.646Z,26.70
2018-07-12T19:07:35.005Z,26.40
2018-07-12T19:10:03.598Z,26.10
2018-07-12T19:12:32.473Z,25.90
2018-07-12T19:15:01.203Z,25.90
2018-07-12T19:17:29.857Z,25.90
2018-07-12T19:19:58.501Z,25.90
2018-07-12T19:22:26.967Z,25.60
2018-07-12T19:24:55.655Z,25.50
2018-07-12T19:27:23.978Z,25.30
2018-07-12T19:29:52.365Z,25.40
2018-07-12T19:32:20.696Z,25.40
2018-07-12T19:34:49.101Z,25.20
2018-07-12T19:37:17.397Z,25.20
2018-07-12T19:39:45.745Z,25.20
2018-07-12T19:42:14.121Z,25.30
2018-07-12T19:44:42.485Z,25.40
2018-07-12T19:47:11.505Z,25.40
2018-07-12T19:49:40.323Z,25.50
2018-07-12T19:52:17.519Z,25.50
2018-07-12T19:54:56.411Z,25.20
2018-07-12T19:57:26.622Z,25.20
2018-07-12T19:59:57.077Z,25.20
2018-07-12T20:02:27.077Z,25.20
2018-07-12T20:04:57.857Z,24.80
2018-07-12T20:07:28.534Z,24.70
2018-07-12T20:09:59.965Z,24.60
2018-07-12T20:12:30.471Z,24.30
2018-07-12T20:15:02.130Z,24.30
2018-07-12T20:17:32.841Z,24.40
2018-07-12T20:20:04.376Z,24.20
2018-07-12T20:22:34.418Z,24.00
2018-07-12T20:25:03.557Z,24.30
2018-07-12T20:27:35.271Z,24.40
2018-07-12T20:30:04.180Z,24.10
2018-07-12T20:32:32.813Z,23.80
2018-07-12T20:35:02.557Z,23.80
2018-07-12T20:37:33.165Z,23.60
2018-07-12T20:40:03.825Z,23.60
2018-07-12T20:42:33.958Z,23.50
2018-07-12T20:45:03.665Z,23.50
2018-07-12T20:47:32.659Z,23.40
2018-07-12T20:50:02.197Z,23.30
2018-07-12T20:52:31.457Z,23.10
2018-07-12T20:55:00.942Z,23.20
2018-07-12T20:57:30.732Z,23.00
2018-07-12T21:00:01.372Z,23.00
2018-07-12T21:02:30.508Z,22.90
2018-07-12T21:04:59.692Z,23.00
2018-07-12T21:07:28.790Z,23.00
2018-07-12T21:09:58.304Z,23.00
2018-07-12T21:12:27.303Z,23.20
2018-07-12T21:14:55.952Z,23.00
2018-07-12T21:17:24.377Z,23.00
2018-07-12T21:19:52.699Z,22.90
2018-07-12T21:22:21.045Z,22.70
2018-07-12T21:24:49.452Z,22.70
2018-07-12T21:27:17.794Z,22.60
2018-07-12T21:29:46.153Z,22.50
2018-07-12T21:32:14.548Z,22.50
2018-07-12T21:34:42.855Z,22.40
2018-07-12T21:37:11.236Z,22.40
2018-07-12T21:39:39.617Z,22.30
2018-07-12T21:42:08.042Z,22.20
2018-07-12T21:44:36.381Z,22.20
2018-07-12T21:47:04.778Z,22.10
2018-07-12T21:49:33.106Z,22.00
2018-07-12T21:52:01.483Z,22.00
2018-07-12T21:54:29.810Z,22.00
2018-07-12T21:56:58.169Z,22.00
2018-07-12T21:59:26.531Z,21.80
2018-07-12T22:01:54.919Z,22.00
2018-07-12T22:04:23.290Z,21.90
2018-07-12T22:07:16.861Z,21.70
2018-07-12T22:09:45.195Z,21.50
2018-07-12T22:12:13.512Z,21.60
2018-07-12T22:14:41.827Z,21.60
2018-07-12T22:17:10.162Z,21.50
2018-07-12T22:19:38.485Z,21.40
2018-07-12T22:22:06.920Z,21.10
2018-07-12T22:24:35.255Z,21.50
2018-07-12T22:27:03.602Z,21.60
2018-07-12T22:29:31.916Z,21.80
2018-07-12T22:32:00.257Z,21.90
2018-07-12T22:34:29.250Z,21.50
2018-07-12T22:36:58.187Z,21.30
2018-07-12T22:39:26.521Z,21.00
2018-07-12T22:41:54.902Z,20.90
2018-07-12T22:44:23.274Z,20.90
2018-07-12T22:46:51.648Z,20.90
2018-07-12T22:49:19.960Z,20.90
2018-07-12T22:51:48.317Z,20.70
2018-07-12T22:54:16.696Z,20.70
2018-07-12T22:56:45.126Z,20.50
2018-07-12T22:59:13.531Z,20.50
2018-07-12T23:01:41.897Z,20.70
2018-07-12T23:04:10.218Z,20.70
2018-07-12T23:06:38.670Z,20.40
2018-07-12T23:09:07.543Z,20.20
2018-07-12T23:11:35.922Z,20.40
2018-07-12T23:14:04.981Z,20.30
2018-07-12T23:16:33.609Z,20.60
2018-07-12T23:19:01.922Z,20.60
2018-07-12T23:21:30.294Z,20.50
2018-07-12T23:24:01.519Z,20.30
2018-07-12T23:26:30.014Z,20.20
2018-07-12T23:28:58.373Z,20.00
2018-07-12T23:31:26.858Z,20.00
2018-07-12T23:33:55.225Z,20.10
2018-07-12T23:36:23.634Z,19.80
2018-07-12T23:38:51.970Z,20.00
2018-07-12T23:41:20.345Z,19.70
2018-07-12T23:43:48.729Z,20.00
2018-07-12T23:46:17.030Z,19.90
2018-07-12T23:48:45.364Z,19.70
2018-07-12T23:51:13.684Z,19.60
2018-07-12T23:53:42.037Z,19.50
2018-07-12T23:56:10.913Z,19.40
2018-07-12T23:58:39.313Z,19.40
